Time;durP1;ratioP1;P1;durP2;ratioP2;P2;SDS_P1;SDS_P2;PMS_P1;PMS_P2;Temp;Humidity;BMP_temperature;BMP_pressure;BME280_temperature;BME280_humidity;BME280_pressure;Samples;Min_cycle;Max_cycle;Signal;HPM_P1;HPM_P2
2022/03/02 00:00:08;;;;;;;18.50;8.88;;;;;;;1.32;43.77;100935.16;4453641;32;34006;-61
2022/03/02 00:02:36;;;;;;;16.87;8.00;;;;;;;1.90;42.42;100934.88;4450345;32;34544;-61
2022/03/02 00:05:04;;;;;;;18.45;7.60;;;;;;;2.00;41.53;100931.56;4450605;32;33900;-61
2022/03/02 00:07:31;;;;;;;15.02;6.80;;;;;;;0.76;44.63;100932.94;4451864;32;33706;-62
2022/03/02 00:09:59;;;;;;;17.58;7.90;;;;;;;0.23;45.93;100936.84;4438331;32;34465;-61
2022/03/02 00:12:27;;;;;;;18.02;8.52;;;;;;;0.42;46.38;100924.38;4452413;32;34583;-61
2022/03/02 00:14:54;;;;;;;15.55;6.40;;;;;;;0.52;45.98;100926.22;4451021;32;33327;-61
2022/03/02 00:17:22;;;;;;;15.02;6.45;;;;;;;0.69;45.06;100925.37;4455538;32;34007;-61
2022/03/02 00:19:50;;;;;;;15.90;7.53;;;;;;;0.61;45.75;100931.38;4443268;32;34561;-61
2022/03/02 00:22:18;;;;;;;17.05;7.15;;;;;;;0.38;46.01;100922.25;4455044;32;34122;-61
2022/03/02 00:24:50;;;;;;;13.95;6.47;;;;;;;-0.51;47.86;100923.16;4453362;32;33664;-61
2022/03/02 00:27:19;;;;;;;16.48;6.62;;;;;;;-0.37;48.18;100933.16;4454271;32;33667;-61
2022/03/02 00:29:46;;;;;;;16.50;6.60;;;;;;;0.11;46.15;100923.75;4454208;32;34596;-61
2022/03/02 00:32:14;;;;;;;13.32;5.60;;;;;;;0.65;44.81;100919.06;4453187;32;34422;-61
2022/03/02 00:34:42;;;;;;;14.10;6.60;;;;;;;-0.63;47.87;100918.56;4448525;32;33454;-61
2022/03/02 00:37:10;;;;;;;15.32;6.18;;;;;;;-0.72;47.77;100922.66;4450866;32;33936;-61
2022/03/02 00:39:38;;;;;;;15.07;5.90;;;;;;;-0.61;47.48;100912.00;4454502;32;34538;-61
2022/03/02 00:42:06;;;;;;;15.60;6.35;;;;;;;-0.13;46.50;100904.28;4454647;32;33711;-61
2022/03/02 00:44:34;;;;;;;13.10;5.55;;;;;;;-0.47;46.58;100904.91;4453387;32;33445;-61
2022/03/02 00:47:02;;;;;;;15.13;6.00;;;;;;;-0.53;46.47;100899.19;4430503;32;33883;-61
2022/03/02 00:49:36;;;;;;;13.52;6.12;;;;;;;-0.23;45.93;100897.31;4450686;32;34113;-61
2022/03/02 00:52:04;;;;;;;14.43;5.78;;;;;;;-0.38;46.26;100898.25;4450612;32;34759;-61
2022/03/02 00:54:31;;;;;;;14.65;6.05;;;;;;;-0.49;46.73;100886.03;4450933;32;34079;-61
2022/03/02 00:56:59;;;;;;;15.07;6.07;;;;;;;-0.69;47.03;100889.03;4440376;32;33810;-61
2022/03/02 00:59:27;;;;;;;14.93;6.30;;;;;;;-0.65;46.94;100888.63;4455513;32;34715;-61
2022/03/02 01:01:54;;;;;;;14.68;6.43;;;;;;;-0.57;46.61;100884.34;4447199;32;34708;-61
2022/03/02 01:04:22;;;;;;;14.77;5.62;;;;;;;-0.85;47.11;100873.75;4434897;32;32697;-61
2022/03/02 01:06:49;;;;;;;14.07;5.82;;;;;;;-0.72;46.76;100876.88;4454815;32;33963;-61
2022/03/02 01:09:17;;;;;;;13.80;5.32;;;;;;;-0.74;46.56;100872.38;4453235;32;33950;-62
2022/03/02 01:11:44;;;;;;;12.27;5.12;;;;;;;-0.64;46.44;100880.22;4452495;32;34667;-61
2022/03/02 01:14:12;;;;;;;12.25;5.30;;;;;;;-0.50;46.04;100868.94;4432491;32;33343;-61
2022/03/02 01:16:39;;;;;;;11.85;5.40;;;;;;;-0.36;45.82;100861.13;4453320;32;34729;-61
2022/03/02 01:19:07;;;;;;;12.50;5.50;;;;;;;-0.51;46.24;100862.06;4451130;32;34959;-61
2022/03/02 01:21:35;;;;;;;13.82;5.50;;;;;;;-0.87;47.18;100854.88;4453936;32;33947;-61
2022/03/02 01:24:02;;;;;;;12.43;5.40;;;;;;;-0.75;46.96;100856.19;4451916;32;32042;-61
2022/03/02 01:26:31;;;;;;;14.75;5.45;;;;;;;-1.08;47.72;100854.41;4439756;32;34670;-61
2022/03/02 01:28:58;;;;;;;14.70;5.57;;;;;;;-1.23;48.21;100857.84;4452936;32;33887;-61
2022/03/02 01:31:26;;;;;;;12.40;5.40;;;;;;;-1.09;47.92;100842.41;4454635;32;34671;-61
2022/03/02 01:33:54;;;;;;;13.43;5.25;;;;;;;-1.48;49.05;100850.09;4453007;32;33247;-61
2022/03/02 01:36:22;;;;;;;10.95;4.47;;;;;;;-1.38;48.98;100846.91;4453587;32;33816;-61
2022/03/02 01:38:50;;;;;;;11.93;4.72;;;;;;;-1.28;49.07;100843.72;4446728;32;34607;-62
2022/03/02 01:41:21;;;;;;;12.90;4.82;;;;;;;-1.36;48.95;100839.47;4453934;32;34653;-61
2022/03/02 01:43:49;;;;;;;11.07;4.62;;;;;;;-1.25;48.46;100837.34;4443960;32;33243;-61
2022/03/02 01:46:19;;;;;;;9.38;4.05;;;;;;;-1.67;49.58;100841.19;4452020;32;34107;-61
2022/03/02 01:48:46;;;;;;;13.45;5.10;;;;;;;-1.57;49.35;100828.75;4441375;32;33887;-62
2022/03/02 01:51:14;;;;;;;11.12;5.22;;;;;;;-1.59;49.84;100835.31;4437516;32;33570;-62
2022/03/02 01:53:42;;;;;;;13.13;5.07;;;;;;;-1.22;49.02;100821.50;4452004;32;32786;-61
2022/03/02 01:56:10;;;;;;;12.73;5.03;;;;;;;-1.26;48.87;100827.00;4440564;32;33901;-61
2022/03/02 01:58:38;;;;;;;14.10;4.85;;;;;;;-1.54;49.56;100831.66;4454078;32;33607;-61
2022/03/02 02:01:07;;;;;;;12.13;4.55;;;;;;;-1.51;49.32;100829.41;4470572;26;34713;-83
2022/03/02 02:04:04;;;;;;;11.73;4.78;;;;;;;-1.81;50.17;100835.50;4472597;31;33026;-82
2022/03/02 02:07:00;;;;;;;13.77;5.57;;;;;;;-1.94;50.63;100839.97;4495509;26;34093;-62
2022/03/02 02:09:28;;;;;;;9.50;4.28;;;;;;;-1.67;50.06;100836.13;4479721;32;33518;-62
2022/03/02 02:11:56;;;;;;;12.60;5.45;;;;;;;-1.47;49.54;100836.66;4479408;32;34013;-62
2022/03/02 02:14:23;;;;;;;11.10;4.95;;;;;;;-1.28;48.84;100823.37;4473471;32;33252;-62
2022/03/02 02:16:51;;;;;;;11.20;4.93;;;;;;;-1.60;49.96;100818.28;4478349;32;34528;-61
2022/03/02 02:19:18;;;;;;;11.50;5.35;;;;;;;-1.56;49.88;100817.88;4484886;32;33790;-63
2022/03/02 02:21:47;;;;;;;11.10;5.43;;;;;;;-1.52;49.90;100827.63;4478517;32;34059;-62
2022/03/02 02:24:15;;;;;;;12.32;4.65;;;;;;;-1.55;50.00;100821.31;4470300;32;33380;-62
2022/03/02 02:26:43;;;;;;;11.68;5.07;;;;;;;-1.54;50.12;100818.94;4483648;32;34510;-62
2022/03/02 02:29:11;;;;;;;13.07;5.70;;;;;;;-1.90;51.04;100816.72;4478401;32;34763;-62
2022/03/02 02:31:40;;;;;;;12.98;5.35;;;;;;;-1.87;51.17;100822.16;4482761;32;33896;-62
2022/03/02 02:34:08;;;;;;;10.82;5.22;;;;;;;-2.08;51.33;100820.69;4468732;32;34268;-62
2022/03/02 02:36:37;;;;;;;13.90;5.10;;;;;;;-1.93;51.42;100820.53;4484727;32;33555;-62
2022/03/02 02:39:05;;;;;;;11.43;5.32;;;;;;;-1.75;50.83;100816.59;4470649;32;34675;-62
2022/03/02 02:41:32;;;;;;;10.73;4.55;;;;;;;-2.01;51.42;100822.25;4478901;32;33866;-62
2022/03/02 02:43:59;;;;;;;10.45;5.18;;;;;;;-2.12;51.71;100827.78;4484162;32;33037;-62
2022/03/02 02:46:27;;;;;;;13.80;4.90;;;;;;;-2.07;51.63;100822.47;4474291;32;33606;-62
2022/03/02 02:48:55;;;;;;;13.48;5.62;;;;;;;-2.27;52.37;100822.81;4482907;32;34448;-62
2022/03/02 02:51:22;;;;;;;11.63;5.68;;;;;;;-2.37;52.48;100817.44;4478411;32;34885;-62
2022/03/02 02:53:50;;;;;;;15.18;4.95;;;;;;;-2.50;53.21;100812.63;4461466;32;32936;-62
2022/03/02 02:56:17;;;;;;;12.75;4.47;;;;;;;-2.57;53.54;100813.59;4483249;32;33972;-63
2022/03/02 02:58:45;;;;;;;11.43;5.03;;;;;;;-2.41;53.33;100827.97;4474726;32;33976;-62
2022/03/02 03:01:12;;;;;;;11.15;4.47;;;;;;;-2.54;54.00;100819.72;4484234;32;33470;-62
2022/03/02 03:03:40;;;;;;;10.00;4.50;;;;;;;-2.53;53.47;100817.38;4480988;32;34052;-62
2022/03/02 03:06:07;;;;;;;8.35;3.92;;;;;;;-2.44;53.11;100822.56;4484827;32;33872;-62
2022/03/02 03:08:35;;;;;;;10.82;4.65;;;;;;;-2.60;53.57;100815.75;4484078;32;34106;-62
2022/03/02 03:11:05;;;;;;;14.18;5.32;;;;;;;-2.48;53.55;100822.94;4484590;32;33882;-62
2022/03/02 03:13:33;;;;;;;13.70;5.05;;;;;;;-2.43;53.78;100824.38;4482241;32;33181;-62
2022/03/02 03:16:01;;;;;;;13.85;5.00;;;;;;;-2.43;53.57;100819.31;4481754;32;34094;-62
2022/03/02 03:18:28;;;;;;;10.80;4.85;;;;;;;-2.41;52.98;100827.97;4467820;32;33712;-62
2022/03/02 03:20:56;;;;;;;12.88;4.78;;;;;;;-2.66;53.85;100817.59;4481695;32;33859;-62
2022/03/02 03:23:23;;;;;;;12.23;4.70;;;;;;;-2.72;54.21;100829.59;4480519;32;33579;-62
2022/03/02 03:25:51;;;;;;;10.82;4.90;;;;;;;-2.85;54.44;100821.34;4484251;32;33842;-62
2022/03/02 03:28:18;;;;;;;11.65;4.80;;;;;;;-3.11;55.11;100825.94;4484124;32;34310;-62
2022/03/02 03:30:46;;;;;;;12.18;5.20;;;;;;;-3.21;55.44;100818.91;4482720;32;33908;-62
2022/03/02 03:33:13;;;;;;;14.48;5.15;;;;;;;-2.74;54.35;100815.84;4482047;32;34163;-62
2022/03/02 03:35:41;;;;;;;9.93;5.95;;;;;;;-2.33;53.56;100827.19;4484665;32;34086;-62
2022/03/02 03:38:09;;;;;;;11.52;5.32;;;;;;;-1.89;52.14;100823.63;4484393;32;34823;-62
2022/03/02 03:40:36;;;;;;;15.68;4.95;;;;;;;-1.90;51.87;100826.87;4483792;32;34804;-62
2022/03/02 03:43:04;;;;;;;12.43;4.78;;;;;;;-2.22;52.93;100821.69;4480869;32;33901;-62
2022/03/02 03:45:32;;;;;;;14.15;4.93;;;;;;;-2.33;52.86;100817.06;4479979;32;33856;-62
2022/03/02 03:47:59;;;;;;;18.15;5.12;;;;;;;-2.50;53.16;100816.78;4483117;32;33719;-62
2022/03/02 03:50:27;;;;;;;11.20;4.65;;;;;;;-2.75;54.24;100808.06;4480818;32;33875;-62
2022/03/02 03:52:54;;;;;;;12.27;5.37;;;;;;;-2.64;53.96;100813.59;4478270;32;33447;-62
2022/03/02 03:55:22;;;;;;;12.52;5.05;;;;;;;-2.70;54.32;100818.00;4470430;32;33858;-62
2022/03/02 03:57:49;;;;;;;10.43;4.43;;;;;;;-2.33;53.21;100808.53;4480365;32;34660;-62
2022/03/02 04:00:19;;;;;;;10.70;4.62;;;;;;;-2.11;52.75;100814.34;4483985;32;33900;-62
2022/03/02 04:02:47;;;;;;;14.25;5.60;;;;;;;-2.19;52.75;100810.97;4480180;32;33571;-62
2022/03/02 04:05:15;;;;;;;12.70;4.80;;;;;;;-1.94;51.97;100814.56;4483924;32;34569;-62
2022/03/02 04:07:46;;;;;;;10.48;4.70;;;;;;;-2.19;53.00;100806.78;4475783;32;34267;-62
2022/03/02 04:10:15;;;;;;;15.05;6.00;;;;;;;-2.60;53.76;100805.59;4482808;32;34598;-62
2022/03/02 04:12:44;;;;;;;13.10;5.10;;;;;;;-2.41;53.52;100797.53;4461724;32;34367;-62
2022/03/02 04:15:12;;;;;;;12.40;5.00;;;;;;;-2.41;53.44;100797.53;4476285;32;34092;-62
2022/03/02 04:17:40;;;;;;;12.75;5.00;;;;;;;-2.42;53.37;100800.78;4482972;32;33922;-62
2022/03/02 04:20:07;;;;;;;14.82;5.55;;;;;;;-2.15;52.79;100809.69;4483057;32;34455;-62
2022/03/02 04:22:35;;;;;;;12.02;5.37;;;;;;;-2.25;52.75;100800.13;4483191;32;33647;-62
2022/03/02 04:25:03;;;;;;;12.05;5.75;;;;;;;-2.05;52.48;100803.25;4484376;32;33818;-62
2022/03/02 04:27:30;;;;;;;13.85;5.70;;;;;;;-2.18;53.10;100803.53;4482684;32;33643;-62
2022/03/02 04:29:58;;;;;;;11.32;4.68;;;;;;;-2.10;52.97;100800.94;4485110;32;34759;-62
2022/03/02 04:32:25;;;;;;;12.10;5.05;;;;;;;-2.17;53.51;100790.09;4484430;32;33590;-62
2022/03/02 04:34:53;;;;;;;14.30;5.00;;;;;;;-2.20;53.42;100799.91;4483881;32;32963;-62
2022/03/02 04:37:20;;;;;;;13.23;5.32;;;;;;;-1.53;51.96;100802.94;4486394;32;34762;-62
2022/03/02 04:39:48;;;;;;;13.73;4.90;;;;;;;-2.17;53.13;100800.22;4481895;32;33996;-62
2022/03/02 04:42:16;;;;;;;12.65;4.90;;;;;;;-2.11;53.40;100799.13;4482519;32;33470;-62
2022/03/02 04:44:44;;;;;;;11.95;4.93;;;;;;;-2.21;53.53;100798.09;4474048;32;33597;-62
2022/03/02 04:47:11;;;;;;;15.30;5.35;;;;;;;-2.48;54.31;100780.72;4484989;32;33899;-62
2022/03/02 04:49:39;;;;;;;10.57;4.80;;;;;;;-2.03;53.22;100786.56;4484783;32;33833;-62
2022/03/02 04:52:07;;;;;;;13.98;5.53;;;;;;;-2.01;53.39;100784.16;4485222;32;33208;-62
2022/03/02 04:57:21;;;;;;;15.77;5.75;;;;;;;-0.98;51.09;100776.56;4477568;32;34459;-62
2022/03/02 04:59:48;;;;;;;15.63;5.90;;;;;;;-1.46;52.10;100772.37;4477538;32;33800;-62
2022/03/02 05:02:17;;;;;;;14.50;6.10;;;;;;;-1.96;52.96;100785.56;4474185;32;34260;-62
2022/03/02 05:04:45;;;;;;;20.12;7.00;;;;;;;-2.06;53.46;100777.69;4469288;32;34786;-62
2022/03/02 05:07:13;;;;;;;15.48;6.35;;;;;;;-1.98;53.09;100771.81;4480512;32;33431;-62
2022/03/02 05:09:41;;;;;;;15.13;6.72;;;;;;;-1.90;53.28;100768.47;4453123;32;32147;-62
2022/03/02 05:12:09;;;;;;;18.67;6.53;;;;;;;-1.82;52.49;100765.13;4475047;32;34207;-62
2022/03/02 05:14:37;;;;;;;13.38;5.57;;;;;;;-2.10;53.78;100771.38;4484331;32;34532;-62
2022/03/02 05:17:05;;;;;;;16.10;6.50;;;;;;;-1.24;51.81;100777.22;4485436;32;34659;-62
2022/03/02 05:19:33;;;;;;;13.18;5.60;;;;;;;-1.81;52.98;100773.66;4484770;32;32799;-62
2022/03/02 05:22:01;;;;;;;14.45;5.80;;;;;;;-1.73;53.30;100782.13;4478973;32;34399;-62
2022/03/02 05:24:28;;;;;;;14.18;5.65;;;;;;;-2.36;54.94;100778.63;4482652;32;33544;-63
2022/03/02 05:26:56;;;;;;;15.00;6.05;;;;;;;-2.26;55.02;100776.41;4481006;32;33747;-62
2022/03/02 05:29:23;;;;;;;13.57;6.18;;;;;;;-2.35;54.63;100782.09;4478821;32;34613;-62
2022/03/02 05:31:51;;;;;;;16.77;7.30;;;;;;;-2.40;54.96;100773.94;4479065;32;34084;-62
2022/03/02 05:34:18;;;;;;;15.70;6.75;;;;;;;-2.45;55.31;100772.56;4463105;32;34441;-62
2022/03/02 05:36:46;;;;;;;19.42;7.47;;;;;;;-2.73;56.54;100766.03;4484572;32;34640;-62
2022/03/02 05:39:14;;;;;;;17.10;7.15;;;;;;;-2.54;56.62;100769.00;4484855;32;34476;-62
2022/03/02 05:41:41;;;;;;;26.52;8.48;;;;;;;-2.04;55.28;100771.16;4480965;32;33235;-63
2022/03/02 05:44:09;;;;;;;20.80;6.72;;;;;;;-2.38;56.26;100773.41;4480017;32;34406;-62
2022/03/02 05:46:37;;;;;;;14.07;5.47;;;;;;;-1.81;54.30;100772.00;4485693;32;33856;-62
2022/03/02 05:49:05;;;;;;;13.73;5.40;;;;;;;-1.52;53.16;100765.75;4479852;32;34460;-63
2022/03/02 05:51:34;;;;;;;14.93;5.22;;;;;;;-1.47;52.59;100762.03;4481052;32;32982;-62
2022/03/02 05:54:03;;;;;;;16.45;5.60;;;;;;;-1.47;52.30;100762.97;4480896;32;32433;-63
2022/03/02 05:56:32;;;;;;;15.43;5.57;;;;;;;-1.58;52.61;100766.00;4469277;32;33927;-63
2022/03/02 05:59:00;;;;;;;12.25;5.43;;;;;;;-2.48;54.88;100769.66;4484992;32;34590;-62
2022/03/02 06:01:27;;;;;;;14.68;6.03;;;;;;;-2.55;56.42;100768.06;4479712;32;34102;-62
2022/03/02 06:03:55;;;;;;;16.52;6.37;;;;;;;-2.80;56.70;100764.41;4482267;32;34765;-62
2022/03/02 06:06:40;;;;;;;14.07;5.47;;;;;;;-2.87;57.56;100767.00;4471133;32;33873;-62
2022/03/02 06:09:09;;;;;;;16.67;6.78;;;;;;;-2.65;57.27;100761.06;4482034;32;34043;-63
2022/03/02 06:11:38;;;;;;;12.43;5.90;;;;;;;-2.96;57.95;100766.84;4476773;32;33559;-62
2022/03/02 06:14:07;;;;;;;15.73;6.70;;;;;;;-2.91;58.09;100760.69;4469836;32;33750;-63
2022/03/02 06:16:38;;;;;;;18.48;8.45;;;;;;;-2.49;57.25;100766.25;4470644;32;34597;-62
2022/03/02 06:19:06;;;;;;;18.23;8.88;;;;;;;-2.58;57.10;100768.63;4475674;32;34012;-62
2022/03/02 06:21:34;;;;;;;21.52;9.65;;;;;;;-2.09;56.40;100769.72;4480617;32;32557;-62
2022/03/02 06:24:02;;;;;;;18.30;8.35;;;;;;;-2.37;57.06;100771.78;4480153;32;34745;-63
2022/03/02 06:26:30;;;;;;;23.17;9.05;;;;;;;-1.79;55.18;100772.19;4481082;32;33755;-61
2022/03/02 06:28:58;;;;;;;21.10;8.85;;;;;;;-1.94;55.48;100771.41;4462272;32;34403;-62
2022/03/02 06:31:25;;;;;;;15.43;8.05;;;;;;;-1.58;54.49;100771.06;4484696;32;33604;-62
2022/03/02 06:33:53;;;;;;;19.75;7.97;;;;;;;-1.48;54.24;100772.97;4484868;32;33665;-62
2022/03/02 06:36:20;;;;;;;19.35;9.15;;;;;;;-1.55;54.08;100763.75;4482124;32;33895;-62
2022/03/02 06:38:48;;;;;;;17.30;7.20;;;;;;;-1.69;54.57;100769.00;4483688;32;33790;-62
2022/03/02 06:41:40;;;;;;;20.67;8.48;;;;;;;-1.37;53.50;100771.56;4480876;32;33149;-62
2022/03/02 06:44:25;;;;;;;15.15;7.32;;;;;;;-1.05;53.12;100768.25;4476789;32;34637;-62
2022/03/02 06:47:01;;;;;;;16.70;7.25;;;;;;;-1.05;52.54;100773.34;4466634;32;33605;-62
2022/03/02 06:49:49;;;;;;;18.00;8.20;;;;;;;-0.89;52.35;100763.19;4473584;32;34486;-62
2022/03/02 06:52:18;;;;;;;13.30;7.10;;;;;;;-0.70;51.75;100760.88;4467862;32;32034;-62
2022/03/02 06:54:50;;;;;;;13.95;6.87;;;;;;;0.01;50.16;100760.53;4455714;32;32106;-62
2022/03/02 06:57:19;;;;;;;22.73;7.82;;;;;;;-0.31;50.15;100763.25;4480555;32;33921;-62
2022/03/02 06:59:52;;;;;;;17.15;7.32;;;;;;;0.58;48.32;100759.50;4478611;32;34145;-62
2022/03/02 07:02:27;;;;;;;14.18;6.95;;;;;;;1.25;46.30;100759.19;4478300;32;35351;-62
2022/03/02 07:04:55;;;;;;;16.80;7.32;;;;;;;1.03;46.55;100760.41;4468994;32;33711;-62
2022/03/02 07:07:23;;;;;;;22.25;7.25;;;;;;;0.57;47.86;100752.56;4481076;32;34284;-62
2022/03/02 07:09:51;;;;;;;15.07;7.10;;;;;;;0.76;47.04;100746.75;4468674;32;31279;-62
2022/03/02 07:12:19;;;;;;;13.02;6.22;;;;;;;0.65;47.69;100742.25;4481544;32;33128;-62
2022/03/02 12:38:46;;;;;;;12.80;6.05;;;;;;;9.93;28.35;100372.34;4455380;32;175552;-63
2022/03/02 12:41:14;;;;;;;12.80;7.18;;;;;;;9.93;28.35;100372.34;4438837;32;34000;-66
2022/03/02 12:43:41;;;;;;;12.65;6.78;;;;;;;10.35;27.54;100379.06;4431212;32;34376;-64
2022/03/02 12:46:09;;;;;;;13.07;6.22;;;;;;;9.44;28.28;100380.75;4434318;32;33727;-64
2022/03/02 12:48:38;;;;;;;16.85;8.43;;;;;;;9.69;27.81;100372.72;4447148;32;33803;-66
2022/03/02 12:51:28;;;;;;;10.52;6.18;;;;;;;10.39;26.51;100365.47;4440445;32;33635;-64
2022/03/02 12:53:55;;;;;;;14.35;6.45;;;;;;;8.58;28.84;100379.09;4438198;32;33978;-62
2022/03/02 12:56:23;;;;;;;14.10;7.12;;;;;;;9.04;29.52;100371.56;4446358;32;33483;-61
2022/03/02 12:58:50;;;;;;;11.45;5.82;;;;;;;9.64;28.41;100369.00;4440171;32;34065;-62
2022/03/02 13:01:18;;;;;;;16.83;7.05;;;;;;;9.07;28.53;100368.25;4440217;32;33129;-63
2022/03/02 13:03:49;;;;;;;12.85;6.37;;;;;;;9.23;29.64;100368.38;4441917;32;32393;-61
2022/03/02 13:06:23;;;;;;;13.70;6.15;;;;;;;9.33;28.60;100355.97;4437094;32;34193;-65
2022/03/02 13:08:58;;;;;;;15.52;6.90;;;;;;;9.17;28.62;100357.66;4443154;32;33636;-64
2022/03/02 13:11:33;;;;;;;11.82;6.50;;;;;;;9.17;28.79;100352.47;4432409;32;34156;-62
2022/03/02 13:14:01;;;;;;;15.75;6.68;;;;;;;10.31;27.60;100350.31;4431257;32;34603;-62
2022/03/02 13:16:38;;;;;;;9.75;5.37;;;;;;;9.72;28.18;100346.16;4443517;32;34189;-62
2022/03/02 13:19:16;;;;;;;12.52;5.97;;;;;;;9.50;28.33;100350.09;4446364;32;33771;-65
2022/03/02 13:21:57;;;;;;;11.55;6.40;;;;;;;8.77;28.91;100337.22;4447118;32;34076;-63
2022/03/02 13:24:25;;;;;;;12.73;6.50;;;;;;;8.94;28.61;100337.31;4446900;32;34720;-63
2022/03/02 13:26:56;;;;;;;10.73;6.12;;;;;;;9.69;27.65;100320.12;4434235;32;33974;-64
2022/03/02 13:29:27;;;;;;;10.73;6.22;;;;;;;9.86;27.27;100324.53;4444768;32;32832;-63
2022/03/02 13:32:00;;;;;;;13.10;6.70;;;;;;;9.52;28.09;100320.06;4445762;32;33159;-61
2022/03/02 13:34:30;;;;;;;11.88;5.68;;;;;;;9.50;27.91;100319.06;4445870;32;34041;-64
2022/03/02 13:36:59;;;;;;;10.70;6.12;;;;;;;9.38;28.30;100308.03;4446920;32;34584;-65
2022/03/02 13:39:56;;;;;;;12.50;6.50;;;;;;;10.06;27.16;100306.62;4438491;32;33609;-64
2022/03/02 13:42:25;;;;;;;12.30;6.28;;;;;;;9.84;27.83;100308.03;4436640;32;34353;-66
2022/03/02 13:45:08;;;;;;;14.07;7.18;;;;;;;9.55;28.15;100301.22;4434410;32;33833;-65
2022/03/02 13:47:36;;;;;;;12.07;5.95;;;;;;;9.39;28.64;100295.19;4435975;32;33460;-66
2022/03/02 13:50:14;;;;;;;10.50;5.68;;;;;;;9.04;28.70;100295.75;4432213;32;33982;-63
2022/03/02 13:52:45;;;;;;;12.20;5.82;;;;;;;8.77;28.77;100290.72;4437393;32;34990;-62
2022/03/02 13:55:12;;;;;;;12.20;6.12;;;;;;;8.88;29.35;100303.38;4437890;32;33650;-65
2022/03/02 13:58:25;;;;;;;11.60;5.90;;;;;;;8.72;29.58;100296.41;4437459;32;33949;-63
2022/03/02 14:00:53;;;;;;;13.25;5.78;;;;;;;9.08;29.27;100289.94;4437880;32;33733;-64
2022/03/02 14:03:27;;;;;;;12.88;6.65;;;;;;;9.39;28.34;100278.78;4438024;32;33417;-62
2022/03/02 14:05:55;;;;;;;11.07;6.43;;;;;;;9.45;28.31;100285.19;4437802;32;33847;-62
2022/03/02 14:08:23;;;;;;;12.35;6.28;;;;;;;9.33;28.84;100283.59;4438053;32;33942;-63
2022/03/02 14:10:51;;;;;;;12.50;7.20;;;;;;;8.76;30.13;100283.75;4436959;32;33486;-63
2022/03/02 14:13:18;;;;;;;14.48;7.12;;;;;;;8.62;30.43;100282.94;4436929;32;32887;-63
2022/03/02 14:15:46;;;;;;;12.57;6.18;;;;;;;8.40;30.32;100285.88;4437642;32;33990;-65
2022/03/02 14:18:17;;;;;;;17.90;7.40;;;;;;;8.99;29.51;100281.66;4437867;32;34296;-66
2022/03/02 14:20:45;;;;;;;12.10;6.68;;;;;;;9.41;28.80;100277.19;4437735;32;32926;-66
2022/03/02 14:23:14;;;;;;;18.30;9.60;;;;;;;8.99;29.70;100285.09;4437379;32;33081;-64
2022/03/02 14:25:42;;;;;;;13.05;6.68;;;;;;;8.61;30.25;100282.81;4438052;32;33965;-65
2022/03/02 14:28:13;;;;;;;16.98;7.30;;;;;;;9.07;30.09;100275.22;4437955;32;34469;-63
2022/03/02 14:30:44;;;;;;;14.87;7.55;;;;;;;9.07;29.77;100280.38;4436786;32;33884;-65
2022/03/02 14:33:17;;;;;;;15.48;6.90;;;;;;;8.76;30.00;100276.00;4437514;32;33303;-63
2022/03/02 14:35:46;;;;;;;11.23;6.37;;;;;;;8.60;30.93;100265.56;4437388;32;33306;-62
2022/03/02 14:38:15;;;;;;;14.55;6.53;;;;;;;8.53;30.76;100278.91;4437738;32;33907;-64
2022/03/02 14:40:44;;;;;;;13.30;7.57;;;;;;;8.82;30.20;100262.56;4437431;32;33777;-64
2022/03/02 14:43:14;;;;;;;13.82;6.95;;;;;;;9.00;30.04;100268.81;4437265;32;32881;-63
2022/03/02 14:45:46;;;;;;;16.73;9.93;;;;;;;8.89;30.25;100274.16;4437226;32;34022;-65
2022/03/02 14:48:19;;;;;;;13.30;7.30;;;;;;;8.78;30.62;100266.66;4437070;32;33696;-64
2022/03/02 14:50:50;;;;;;;14.75;6.75;;;;;;;8.49;31.05;100271.78;4435823;32;34225;-65
2022/03/02 14:53:24;;;;;;;13.23;6.32;;;;;;;8.60;30.38;100270.72;4437277;32;33115;-64
2022/03/02 14:55:57;;;;;;;13.23;7.12;;;;;;;8.95;29.66;100270.22;4437539;32;33860;-62
2022/03/02 14:58:49;;;;;;;16.10;7.75;;;;;;;8.97;30.14;100272.91;4436906;32;34197;-66
2022/03/02 15:01:22;;;;;;;14.00;7.12;;;;;;;9.17;29.77;100272.34;4436580;32;34181;-63
2022/03/02 15:03:54;;;;;;;14.55;7.22;;;;;;;8.99;30.17;100272.19;4437174;32;33958;-64
2022/03/02 15:06:24;;;;;;;16.08;9.00;;;;;;;8.61;31.01;100272.50;4436137;32;34201;-64
2022/03/02 15:09:00;;;;;;;13.62;6.85;;;;;;;9.16;30.16;100268.00;4432894;32;34716;-62
2022/03/02 15:11:49;;;;;;;13.77;6.28;;;;;;;8.49;31.47;100256.28;4436458;32;33677;-65
2022/03/02 15:17:12;;;;;;;12.82;7.20;;;;;;;8.28;31.62;100261.88;4437481;32;33491;-64
2022/03/02 15:19:42;;;;;;;13.35;7.68;;;;;;;7.72;32.09;100261.81;4436518;32;33589;-63
2022/03/02 15:22:14;;;;;;;15.07;7.20;;;;;;;8.63;31.04;100260.56;4436317;32;33575;-62
2022/03/02 15:24:48;;;;;;;13.50;6.80;;;;;;;8.48;30.97;100262.22;4430982;32;32943;-62
2022/03/02 15:27:17;;;;;;;14.50;7.15;;;;;;;8.44;31.23;100259.47;4418436;32;33970;-62
2022/03/02 15:29:45;;;;;;;14.87;6.50;;;;;;;8.22;31.24;100252.06;4437553;32;34117;-62
2022/03/02 15:32:21;;;;;;;12.52;7.03;;;;;;;8.19;31.75;100250.97;4436033;32;32428;-61
2022/03/02 15:35:00;;;;;;;17.45;8.80;;;;;;;8.12;31.97;100252.31;4434682;32;33211;-63
2022/03/02 15:37:44;;;;;;;14.85;7.78;;;;;;;8.08;31.96;100251.22;4430760;32;34102;-64
2022/03/02 15:40:14;;;;;;;14.93;6.53;;;;;;;8.11;31.66;100247.06;4436549;32;34044;-61
2022/03/02 15:42:47;;;;;;;15.13;7.57;;;;;;;8.11;31.82;100247.06;4437526;32;34383;-62
2022/03/02 15:45:22;;;;;;;13.65;7.18;;;;;;;8.12;31.84;100241.09;4433261;32;33431;-64
2022/03/02 15:48:00;;;;;;;16.42;7.95;;;;;;;8.20;31.83;100247.63;4435528;32;34549;-62
2022/03/02 15:50:39;;;;;;;71.75;27.60;;;;;;;8.06;31.86;100254.53;4436794;32;34891;-64
2022/03/02 15:53:23;;;;;;;21.48;10.18;;;;;;;8.04;33.84;100250.97;4436260;32;33516;-62
2022/03/02 15:55:56;;;;;;;18.12;8.43;;;;;;;8.35;32.23;100251.13;4435235;32;33583;-63
2022/03/02 15:58:32;;;;;;;17.77;7.20;;;;;;;8.31;31.53;100246.59;4434306;32;33861;-63
2022/03/02 16:01:01;;;;;;;15.02;7.37;;;;;;;7.94;32.11;100244.34;4437178;32;34121;-63
2022/03/02 16:03:30;;;;;;;18.50;9.30;;;;;;;7.62;32.47;100250.91;4436319;32;34424;-62
2022/03/02 16:06:01;;;;;;;16.17;8.38;;;;;;;8.02;32.32;100250.84;4434177;32;33964;-61
2022/03/02 16:08:32;;;;;;;14.63;8.60;;;;;;;7.92;32.05;100256.25;4432229;32;33892;-64
2022/03/02 16:11:13;;;;;;;18.58;8.27;;;;;;;7.74;31.82;100255.06;4430383;32;34362;-61
2022/03/02 16:13:42;;;;;;;16.65;9.60;;;;;;;7.51;32.57;100259.66;4427191;32;33787;-63
2022/03/02 16:16:13;;;;;;;15.77;7.60;;;;;;;7.66;31.98;100258.06;4435530;32;33399;-63
2022/03/02 16:18:42;;;;;;;15.27;8.27;;;;;;;7.78;31.46;100262.22;4430809;32;33826;-61
2022/03/02 16:21:16;;;;;;;14.93;7.78;;;;;;;7.97;31.95;100259.97;4432489;32;33898;-64
2022/03/02 16:23:46;;;;;;;17.80;8.87;;;;;;;7.49;32.42;100256.09;4433279;32;33950;-62
2022/03/02 16:26:14;;;;;;;17.87;8.82;;;;;;;7.47;32.37;100260.25;4433024;32;34054;-64
2022/03/02 16:28:43;;;;;;;15.20;7.78;;;;;;;7.87;31.76;100258.53;4434827;32;34773;-63
2022/03/02 16:31:13;;;;;;;17.15;8.48;;;;;;;7.62;32.07;100263.81;4431808;32;33767;-63
2022/03/02 16:33:43;;;;;;;17.05;8.13;;;;;;;7.54;32.31;100265.00;4431622;32;34500;-62
2022/03/02 16:36:12;;;;;;;15.80;8.48;;;;;;;7.78;31.63;100262.22;4432848;32;32771;-63
2022/03/02 16:38:57;;;;;;;15.02;7.68;;;;;;;7.67;32.05;100265.00;4434602;32;33419;-64
2022/03/02 16:41:24;;;;;;;17.27;9.18;;;;;;;7.70;32.08;100268.56;4435239;32;34353;-65
2022/03/02 16:43:52;;;;;;;18.20;8.48;;;;;;;7.76;31.99;100266.38;4435476;32;33741;-63
2022/03/02 16:46:21;;;;;;;15.27;9.50;;;;;;;7.71;32.04;100265.19;4436003;32;35434;-66
2022/03/02 16:48:49;;;;;;;15.75;8.55;;;;;;;7.92;31.88;100265.66;4429492;32;33978;-65
2022/03/02 16:51:16;;;;;;;16.48;9.68;;;;;;;7.74;31.92;100273.12;4430066;32;34399;-66
2022/03/02 16:53:45;;;;;;;18.02;9.48;;;;;;;7.36;32.52;100266.38;4428424;32;34583;-63
2022/03/02 16:56:13;;;;;;;15.02;8.65;;;;;;;7.21;32.62;100267.19;4431036;32;33097;-64
2022/03/02 16:58:41;;;;;;;17.75;8.43;;;;;;;7.36;32.64;100271.53;4423994;32;33573;-65
2022/03/02 17:01:08;;;;;;;16.15;8.45;;;;;;;7.45;31.88;100269.56;4433170;32;34072;-64
2022/03/02 17:03:37;;;;;;;38.88;11.48;;;;;;;8.15;30.69;100267.09;4435198;32;33731;-64